Time;durP1;ratioP1;P1;durP2;ratioP2;P2;SDS_P1;SDS_P2;PMS_P1;PMS_P2;Temp;Humidity;BMP_temperature;BMP_pressure;BME280_temperature;BME280_humidity;BME280_pressure;Samples;Min_cycle;Max_cycle;Signal;HPM_P1;HPM_P2
2023/02/03 00:02:18;;;;;;;14.80;3.45;;;;;;;;;;5072802;28;20048;-71
2023/02/03 00:04:44;;;;;;;13.52;2.60;;;;;;;;;;5072328;28;20091;-71
2023/02/03 00:07:11;;;;;;;16.60;3.08;;;;;;;;;;5078921;28;20107;-71
2023/02/03 00:09:37;;;;;;;17.83;3.70;;;;;;;;;;5078921;28;20040;-71
2023/02/03 00:12:04;;;;;;;20.75;3.42;;;;;;;;;;5076770;28;20342;-71
2023/02/03 00:14:30;;;;;;;15.63;2.78;;;;;;;;;;5077783;28;20050;-71
2023/02/03 00:16:56;;;;;;;13.07;2.47;;;;;;;;;;5075794;28;20043;-71
2023/02/03 00:19:22;;;;;;;18.00;3.38;;;;;;;;;;5078800;28;20054;-71
2023/02/03 00:21:48;;;;;;;13.75;2.25;;;;;;;;;;5074966;28;20131;-71
2023/02/03 00:24:15;;;;;;;16.00;2.83;;;;;;;;;;5074263;28;20411;-71
2023/02/03 00:26:42;;;;;;;14.57;3.45;;;;;;;;;;5076430;28;20543;-71
2023/02/03 00:29:08;;;;;;;19.17;3.25;;;;;;;;;;5077163;28;20044;-71
2023/02/03 00:31:34;;;;;;;16.65;3.65;;;;;;;;;;5074969;28;20484;-70
2023/02/03 00:34:00;;;;;;;15.80;3.00;;;;;;;;;;5052675;28;20059;-71
2023/02/03 00:36:27;;;;;;;17.08;3.10;;;;;;;;;;5073400;28;21312;-71
2023/02/03 00:38:53;;;;;;;21.33;3.08;;;;;;;;;;5073596;28;20076;-71
2023/02/03 00:41:20;;;;;;;22.90;3.17;;;;;;;;;;5089537;28;20051;-71
2023/02/03 00:43:46;;;;;;;17.70;3.53;;;;;;;;;;5077035;28;20474;-71
2023/02/03 00:46:12;;;;;;;18.63;3.08;;;;;;;;;;5092808;28;20051;-71
2023/02/03 00:48:39;;;;;;;13.57;3.28;;;;;;;;;;5093137;28;20055;-71
2023/02/03 00:51:05;;;;;;;12.35;3.05;;;;;;;;;;5097912;28;20043;-71
2023/02/03 00:53:31;;;;;;;17.20;3.40;;;;;;;;;;5078931;28;20445;-71
2023/02/03 00:55:57;;;;;;;19.50;3.58;;;;;;;;;;5096633;28;20054;-71
2023/02/03 00:58:23;;;;;;;14.90;3.58;;;;;;;;;;5079281;28;20062;-71
2023/02/03 01:00:50;;;;;;;16.58;3.15;;;;;;;;;;5081220;28;20036;-71
2023/02/03 01:03:16;;;;;;;18.83;3.95;;;;;;;;;;5079072;28;20075;-71
2023/02/03 01:05:42;;;;;;;12.38;3.05;;;;;;;;;;5101218;28;20040;-71
2023/02/03 01:08:08;;;;;;;11.68;2.40;;;;;;;;;;5101597;28;20046;-71
2023/02/03 01:10:37;;;;;;;18.67;3.17;;;;;;;;;;5098600;28;20050;-71
2023/02/03 01:13:03;;;;;;;15.48;2.97;;;;;;;;;;5092893;27;20120;-71
2023/02/03 01:15:29;;;;;;;17.20;3.00;;;;;;;;;;5092588;28;20044;-71
2023/02/03 01:17:55;;;;;;;13.73;2.55;;;;;;;;;;5076870;28;20039;-71
2023/02/03 01:20:23;;;;;;;23.33;3.83;;;;;;;;;;5095568;28;20131;-71
2023/02/03 01:22:49;;;;;;;14.40;3.58;;;;;;;;;;5056954;28;20044;-71
2023/02/03 01:25:15;;;;;;;22.00;3.15;;;;;;;;;;5098753;28;20043;-71
2023/02/03 01:27:41;;;;;;;21.20;3.15;;;;;;;;;;5094404;28;20039;-71
2023/02/03 01:30:07;;;;;;;20.00;3.35;;;;;;;;;;5099272;28;20118;-70
2023/02/03 01:32:34;;;;;;;21.38;2.85;;;;;;;;;;5072796;28;20048;-71
2023/02/03 01:35:00;;;;;;;18.42;2.80;;;;;;;;;;5094609;28;20044;-71
2023/02/03 01:37:26;;;;;;;19.48;3.67;;;;;;;;;;5078516;28;20098;-70
2023/02/03 01:39:52;;;;;;;18.52;3.10;;;;;;;;;;5093023;28;20116;-70
2023/02/03 01:42:18;;;;;;;14.57;3.00;;;;;;;;;;5094538;28;20039;-70
2023/02/03 01:44:47;;;;;;;23.70;3.45;;;;;;;;;;5094851;28;20044;-71
2023/02/03 01:47:23;;;;;;;21.38;3.72;;;;;;;;;;5075459;28;20128;-71
2023/02/03 01:50:06;;;;;;;16.25;3.13;;;;;;;;;;5095266;27;20058;-71
2023/02/03 01:52:33;;;;;;;18.65;3.78;;;;;;;;;;5093223;28;20048;-70
2023/02/03 01:55:00;;;;;;;16.65;3.53;;;;;;;;;;5095565;28;20039;-70
2023/02/03 01:57:29;;;;;;;23.00;4.22;;;;;;;;;;5096773;28;20115;-70
2023/02/03 01:59:57;;;;;;;18.20;3.50;;;;;;;;;;5090332;28;20180;-70
2023/02/03 02:02:23;;;;;;;23.40;4.60;;;;;;;;;;5092471;28;20036;-70
2023/02/03 02:04:53;;;;;;;17.45;2.85;;;;;;;;;;5094332;28;20048;-70
2023/02/03 02:07:19;;;;;;;20.08;3.47;;;;;;;;;;5077600;28;20046;-71
2023/02/03 02:09:46;;;;;;;19.80;4.03;;;;;;;;;;5094238;28;20040;-70
2023/02/03 02:12:12;;;;;;;20.80;3.55;;;;;;;;;;5090520;28;20055;-70
2023/02/03 02:14:39;;;;;;;18.85;2.55;;;;;;;;;;5095151;28;20036;-70
2023/02/03 02:17:08;;;;;;;21.13;4.72;;;;;;;;;;5095254;28;20048;-70
2023/02/03 02:19:43;;;;;;;26.73;4.82;;;;;;;;;;5093951;28;20187;-70
2023/02/03 02:22:14;;;;;;;13.38;3.50;;;;;;;;;;5076255;28;20385;-70
2023/02/03 02:25:00;;;;;;;15.15;2.78;;;;;;;;;;5091570;28;20503;-70
2023/02/03 02:27:41;;;;;;;13.95;3.67;;;;;;;;;;5093855;28;20146;-70
2023/02/03 02:30:08;;;;;;;27.60;4.85;;;;;;;;;;5090604;28;20040;-70
2023/02/03 02:32:42;;;;;;;14.68;2.90;;;;;;;;;;5091458;28;20048;-70
2023/02/03 02:35:17;;;;;;;18.60;3.08;;;;;;;;;;5076661;28;20130;-70
2023/02/03 02:37:53;;;;;;;20.90;4.43;;;;;;;;;;5092334;28;20036;-70
2023/02/03 02:40:40;;;;;;;22.95;3.28;;;;;;;;;;5094557;28;20044;-70
2023/02/03 02:43:12;;;;;;;22.70;3.72;;;;;;;;;;5091428;28;20063;-70
2023/02/03 02:45:48;;;;;;;16.92;3.83;;;;;;;;;;5076445;28;20085;-70
2023/02/03 02:48:21;;;;;;;13.77;2.88;;;;;;;;;;5093252;28;20050;-70
2023/02/03 02:50:49;;;;;;;20.77;3.58;;;;;;;;;;5094905;28;20063;-70
2023/02/03 02:53:16;;;;;;;16.70;3.35;;;;;;;;;;5075168;28;20394;-70
2023/02/03 02:55:43;;;;;;;20.88;4.03;;;;;;;;;;5093686;28;20047;-70
2023/02/03 02:58:11;;;;;;;12.77;2.75;;;;;;;;;;5072865;28;20035;-70
2023/02/03 03:00:39;;;;;;;20.98;3.88;;;;;;;;;;5080101;28;20040;-70
2023/02/03 03:03:07;;;;;;;23.85;4.28;;;;;;;;;;5093905;28;20048;-70
2023/02/03 03:05:33;;;;;;;17.63;2.97;;;;;;;;;;5091449;28;20406;-70
2023/02/03 03:08:01;;;;;;;25.50;3.53;;;;;;;;;;5091860;28;20742;-70
2023/02/03 03:10:29;;;;;;;29.42;4.25;;;;;;;;;;5076784;28;21439;-70
2023/02/03 03:13:01;;;;;;;22.27;4.50;;;;;;;;;;5078513;28;20061;-70
2023/02/03 03:15:30;;;;;;;18.05;3.83;;;;;;;;;;5081006;28;20099;-70
2023/02/03 03:18:02;;;;;;;12.88;3.30;;;;;;;;;;5100235;28;20038;-70
2023/02/03 03:20:29;;;;;;;18.20;4.47;;;;;;;;;;5095858;28;20052;-70
2023/02/03 03:23:02;;;;;;;13.98;3.42;;;;;;;;;;5079083;28;20058;-71
2023/02/03 03:25:31;;;;;;;17.80;3.40;;;;;;;;;;5095932;28;20039;-70
2023/02/03 03:27:59;;;;;;;21.75;3.47;;;;;;;;;;5096997;28;20796;-70
2023/02/03 03:30:28;;;;;;;22.05;4.00;;;;;;;;;;5080900;28;20047;-70
2023/02/03 03:32:57;;;;;;;17.40;2.88;;;;;;;;;;5079691;28;20067;-70
2023/02/03 03:35:24;;;;;;;14.23;2.95;;;;;;;;;;5060568;28;20048;-70
2023/02/03 03:37:53;;;;;;;23.27;3.90;;;;;;;;;;5079491;28;20062;-70
2023/02/03 03:40:21;;;;;;;14.05;3.10;;;;;;;;;;5097364;28;20126;-70
2023/02/03 03:42:51;;;;;;;20.52;3.88;;;;;;;;;;5095375;27;20064;-70
2023/02/03 03:45:20;;;;;;;19.83;3.53;;;;;;;;;;5095503;28;20044;-70
2023/02/03 03:47:49;;;;;;;17.23;3.58;;;;;;;;;;5080691;28;20035;-70
2023/02/03 03:50:18;;;;;;;19.20;3.28;;;;;;;;;;5076347;28;20416;-70
2023/02/03 03:52:46;;;;;;;17.67;3.40;;;;;;;;;;5095623;28;20044;-70
2023/02/03 03:55:14;;;;;;;26.60;3.72;;;;;;;;;;5093504;28;20047;-70
2023/02/03 03:57:45;;;;;;;22.85;3.45;;;;;;;;;;5097376;28;20129;-70
2023/02/03 04:00:14;;;;;;;17.80;3.92;;;;;;;;;;5075678;28;20056;-70
2023/02/03 04:02:42;;;;;;;18.15;3.58;;;;;;;;;;5078654;28;20159;-70
2023/02/03 04:05:09;;;;;;;22.15;3.45;;;;;;;;;;5097569;28;20089;-70
2023/02/03 04:07:39;;;;;;;15.10;2.92;;;;;;;;;;5096363;28;20097;-70
2023/02/03 04:10:06;;;;;;;22.05;3.42;;;;;;;;;;5098797;28;20084;-70
2023/02/03 04:12:33;;;;;;;26.88;4.40;;;;;;;;;;5078946;28;20040;-70
2023/02/03 04:14:59;;;;;;;24.38;4.00;;;;;;;;;;5079666;28;20043;-70
2023/02/03 04:17:25;;;;;;;18.48;3.70;;;;;;;;;;5095306;28;20440;-70
2023/02/03 04:19:51;;;;;;;17.55;3.55;;;;;;;;;;5097068;28;20386;-70
2023/02/03 04:22:17;;;;;;;16.40;3.38;;;;;;;;;;5095286;28;20499;-70
2023/02/03 04:24:43;;;;;;;17.60;3.50;;;;;;;;;;5097111;28;20411;-70
2023/02/03 04:27:09;;;;;;;16.65;3.42;;;;;;;;;;5079487;28;20052;-70
2023/02/03 04:29:35;;;;;;;16.10;4.47;;;;;;;;;;5079625;28;20053;-70
2023/02/03 04:32:02;;;;;;;20.65;3.78;;;;;;;;;;5095729;28;20116;-70
2023/02/03 04:34:28;;;;;;;23.33;3.30;;;;;;;;;;5096504;28;20043;-70
2023/02/03 04:36:54;;;;;;;13.00;2.90;;;;;;;;;;5092368;28;21267;-70
2023/02/03 04:39:21;;;;;;;17.92;2.85;;;;;;;;;;5077201;28;20371;-70
2023/02/03 04:41:47;;;;;;;21.33;3.28;;;;;;;;;;5095479;28;20324;-70
2023/02/03 04:44:13;;;;;;;21.02;3.15;;;;;;;;;;5093996;28;20097;-70
2023/02/03 04:46:39;;;;;;;19.10;3.13;;;;;;;;;;5093621;28;20123;-70
2023/02/03 04:49:06;;;;;;;22.20;4.10;;;;;;;;;;5093436;28;20044;-70
2023/02/03 04:51:32;;;;;;;18.08;3.38;;;;;;;;;;5096430;28;20039;-70
2023/02/03 04:53:58;;;;;;;16.98;3.17;;;;;;;;;;5097169;28;20039;-70
2023/02/03 04:56:24;;;;;;;22.52;4.00;;;;;;;;;;5094776;28;20118;-70
2023/02/03 04:58:50;;;;;;;19.35;3.38;;;;;;;;;;5095900;28;20051;-70
2023/02/03 05:01:16;;;;;;;21.67;2.90;;;;;;;;;;5094811;28;20043;-70
2023/02/03 05:03:42;;;;;;;19.17;3.28;;;;;;;;;;5091946;28;20152;-70
2023/02/03 05:06:09;;;;;;;13.60;2.85;;;;;;;;;;5095186;28;20044;-70
2023/02/03 05:08:35;;;;;;;13.63;2.58;;;;;;;;;;5094831;28;20059;-70
2023/02/03 05:11:01;;;;;;;18.48;3.00;;;;;;;;;;5094356;28;20044;-70
2023/02/03 05:13:27;;;;;;;21.80;3.30;;;;;;;;;;5093206;28;20048;-70
2023/02/03 05:15:53;;;;;;;13.85;3.10;;;;;;;;;;5097587;28;20082;-70
2023/02/03 05:18:19;;;;;;;15.63;2.97;;;;;;;;;;5094119;28;20367;-70
2023/02/03 05:20:46;;;;;;;17.73;2.95;;;;;;;;;;5097898;28;20047;-70
2023/02/03 05:23:12;;;;;;;14.85;3.17;;;;;;;;;;5075090;28;20050;-70
2023/02/03 05:25:38;;;;;;;15.80;3.03;;;;;;;;;;5076541;28;20142;-70
2023/02/03 05:28:04;;;;;;;14.10;3.17;;;;;;;;;;5095395;28;20043;-70
2023/02/03 05:30:30;;;;;;;17.90;3.20;;;;;;;;;;5076506;28;20051;-69
2023/02/03 05:32:56;;;;;;;22.92;3.92;;;;;;;;;;5078078;28;20395;-69
2023/02/03 05:35:22;;;;;;;23.15;3.97;;;;;;;;;;5077721;28;20046;-70
2023/02/03 05:37:49;;;;;;;16.95;4.00;;;;;;;;;;5094672;28;20127;-69
2023/02/03 05:43:00;;;;;;;18.95;3.58;;;;;;;;;;5071554;28;20048;-69
2023/02/03 05:45:26;;;;;;;19.08;4.43;;;;;;;;;;5073983;28;20043;-70
2023/02/03 05:47:52;;;;;;;25.17;4.10;;;;;;;;;;5073124;28;20502;-70
2023/02/03 05:50:18;;;;;;;24.80;3.55;;;;;;;;;;5071775;28;20052;-70
2023/02/03 05:52:44;;;;;;;17.92;4.82;;;;;;;;;;5073976;28;20341;-69
2023/02/03 05:55:10;;;;;;;17.40;2.75;;;;;;;;;;5071537;28;20040;-69
2023/02/03 05:57:36;;;;;;;25.23;3.70;;;;;;;;;;5080085;28;20035;-69
2023/02/03 06:00:03;;;;;;;20.63;3.97;;;;;;;;;;5074970;28;20048;-70
2023/02/03 06:02:29;;;;;;;29.25;4.05;;;;;;;;;;5072907;28;20411;-69
2023/02/03 06:04:55;;;;;;;30.85;5.68;;;;;;;;;;5073013;28;20399;-70
2023/02/03 06:07:21;;;;;;;21.33;3.92;;;;;;;;;;5075298;28;20450;-69
2023/02/03 06:09:48;;;;;;;17.20;3.88;;;;;;;;;;5072330;28;20470;-69
2023/02/03 06:12:14;;;;;;;24.33;4.18;;;;;;;;;;5073904;28;20372;-69
2023/02/03 06:14:41;;;;;;;22.25;3.63;;;;;;;;;;5070546;28;20055;-70
2023/02/03 06:17:07;;;;;;;20.85;4.60;;;;;;;;;;5072981;28;20044;-69
2023/02/03 06:19:33;;;;;;;26.20;4.25;;;;;;;;;;5073347;28;20048;-69
2023/02/03 06:21:59;;;;;;;33.30;5.20;;;;;;;;;;5075178;28;20092;-69
2023/02/03 06:24:25;;;;;;;33.50;5.72;;;;;;;;;;5073094;28;20048;-69
2023/02/03 06:26:51;;;;;;;31.10;5.18;;;;;;;;;;5070780;28;20049;-69
2023/02/03 06:29:17;;;;;;;25.77;4.50;;;;;;;;;;5073255;28;20391;-69
2023/02/03 06:31:44;;;;;;;30.60;4.80;;;;;;;;;;5074014;28;20721;-72
2023/02/03 06:34:10;;;;;;;20.42;4.15;;;;;;;;;;5072230;28;20033;-71
2023/02/03 06:36:36;;;;;;;31.23;5.05;;;;;;;;;;5069386;28;20068;-71
2023/02/03 06:39:02;;;;;;;16.05;4.28;;;;;;;;;;5071986;28;20055;-71
2023/02/03 06:41:29;;;;;;;28.73;4.47;;;;;;;;;;5074199;28;20084;-71
2023/02/03 06:43:55;;;;;;;28.67;4.30;;;;;;;;;;5073578;28;20052;-71
2023/02/03 06:46:22;;;;;;;35.22;5.28;;;;;;;;;;5074687;28;20149;-71
2023/02/03 06:48:48;;;;;;;23.98;4.50;;;;;;;;;;5075908;28;20072;-71
2023/02/03 06:51:14;;;;;;;27.55;4.70;;;;;;;;;;5076403;28;20559;-76
2023/02/03 06:53:40;;;;;;;29.50;5.38;;;;;;;;;;5076584;28;21206;-71
2023/02/03 06:56:06;;;;;;;30.25;5.60;;;;;;;;;;5075863;28;20533;-71
2023/02/03 06:58:32;;;;;;;37.38;7.22;;;;;;;;;;5076512;28;20033;-72
2023/02/03 07:00:59;;;;;;;28.30;5.57;;;;;;;;;;5075938;28;21828;-72
2023/02/03 07:03:25;;;;;;;33.28;5.10;;;;;;;;;;5074996;28;20050;-71
2023/02/03 07:05:51;;;;;;;33.03;4.95;;;;;;;;;;5081350;28;20120;-72
2023/02/03 07:08:17;;;;;;;21.92;5.75;;;;;;;;;;5076417;28;20105;-72
2023/02/03 07:10:43;;;;;;;22.90;4.95;;;;;;;;;;5081696;28;20094;-71
2023/02/03 07:13:09;;;;;;;31.83;5.72;;;;;;;;;;5073551;28;20032;-71
2023/02/03 07:15:36;;;;;;;26.55;5.43;;;;;;;;;;5080406;28;20133;-71
2023/02/03 07:18:02;;;;;;;22.75;5.88;;;;;;;;;;5081957;28;20086;-71
2023/02/03 07:20:28;;;;;;;28.25;4.95;;;;;;;;;;5071831;28;20539;-71
2023/02/03 07:22:55;;;;;;;28.25;4.10;;;;;;;;;;5076234;28;20364;-70
2023/02/03 07:25:22;;;;;;;32.92;5.63;;;;;;;;;;5075882;28;20121;-71
2023/02/03 07:27:48;;;;;;;27.58;5.78;;;;;;;;;;5076539;28;20072;-70
2023/02/03 07:30:14;;;;;;;28.27;5.05;;;;;;;;;;5077713;28;20089;-70
2023/02/03 07:32:40;;;;;;;33.30;6.05;;;;;;;;;;5081888;28;20044;-69
2023/02/03 07:35:07;;;;;;;24.55;5.43;;;;;;;;;;5081108;28;20536;-69
2023/02/03 07:37:33;;;;;;;20.70;4.55;;;;;;;;;;5080522;28;20127;-70
2023/02/03 07:39:59;;;;;;;21.83;4.97;;;;;;;;;;5079236;28;20044;-70
2023/02/03 07:42:25;;;;;;;32.03;5.60;;;;;;;;;;5075994;28;20527;-69
2023/02/03 07:44:52;;;;;;;27.75;5.80;;;;;;;;;;5075728;28;20041;-70
2023/02/03 07:47:18;;;;;;;29.65;5.68;;;;;;;;;;5074533;28;20095;-70
2023/02/03 07:49:44;;;;;;;25.33;5.57;;;;;;;;;;5082144;28;20063;-70
2023/02/03 07:52:10;;;;;;;32.45;5.25;;;;;;;;;;5086405;28;20115;-70
2023/02/03 07:54:36;;;;;;;32.88;5.55;;;;;;;;;;5077749;28;20040;-70
2023/02/03 07:57:02;;;;;;;28.92;5.57;;;;;;;;;;5083490;28;20068;-70
2023/02/03 07:59:28;;;;;;;37.20;5.95;;;;;;;;;;5084279;28;20074;-70
2023/02/03 08:01:55;;;;;;;34.47;7.18;;;;;;;;;;5086794;28;20047;-70
2023/02/03 08:04:21;;;;;;;45.13;6.78;;;;;;;;;;5083670;28;20479;-70
2023/02/03 08:06:48;;;;;;;40.75;6.15;;;;;;;;;;5085503;28;20036;-70
2023/02/03 08:09:15;;;;;;;34.00;6.40;;;;;;;;;;5078816;28;20067;-70
2023/02/03 08:11:41;;;;;;;46.05;6.28;;;;;;;;;;5088268;28;20032;-71
2023/02/03 08:14:07;;;;;;;41.63;6.63;;;;;;;;;;5086616;28;20090;-71
2023/02/03 08:16:33;;;;;;;39.35;7.38;;;;;;;;;;5077324;28;20036;-71
2023/02/03 08:18:59;;;;;;;45.97;7.38;;;;;;;;;;5080711;28;20059;-71
2023/02/03 08:21:26;;;;;;;45.13;6.78;;;;;;;;;;5082330;28;20129;-71
2023/02/03 08:23:52;;;;;;;42.15;7.35;;;;;;;;;;5074246;28;20048;-71
2023/02/03 08:26:18;;;;;;;38.35;6.43;;;;;;;;;;5081011;28;20062;-72
2023/02/03 08:28:48;;;;;;;46.38;6.57;;;;;;;;;;5080488;28;20467;-71
2023/02/03 08:31:15;;;;;;;40.17;6.70;;;;;;;;;;5080616;28;20454;-71
2023/02/03 08:33:41;;;;;;;40.53;6.50;;;;;;;;;;5076634;28;20124;-71
2023/02/03 08:36:07;;;;;;;42.85;7.18;;;;;;;;;;5079161;28;20561;-71
2023/02/03 08:38:34;;;;;;;36.40;6.38;;;;;;;;;;5083585;28;20037;-70
2023/02/03 08:41:00;;;;;;;45.60;7.78;;;;;;;;;;5097013;28;20047;-71
2023/02/03 08:43:26;;;;;;;37.95;7.47;;;;;;;;;;5086825;28;20043;-71
2023/02/03 08:45:52;;;;;;;42.25;7.03;;;;;;;;;;5097635;28;20043;-71
2023/02/03 08:48:18;;;;;;;47.95;6.45;;;;;;;;;;5099509;28;20044;-71
2023/02/03 08:50:50;;;;;;;29.40;5.05;;;;;;;;;;5100642;28;20043;-71
2023/02/03 08:53:16;;;;;;;37.20;5.57;;;;;;;;;;5102735;28;20044;-71
2023/02/03 08:55:43;;;;;;;39.58;6.55;;;;;;;;;;5089038;28;20047;-71
2023/02/03 08:58:09;;;;;;;38.22;6.72;;;;;;;;;;5103132;28;20055;-71
2023/02/03 09:00:35;;;;;;;36.67;5.35;;;;;;;;;;5108786;28;20031;-71
2023/02/03 09:03:01;;;;;;;35.00;6.85;;;;;;;;;;5103980;28;20563;-71
2023/02/03 09:05:29;;;;;;;39.55;6.28;;;;;;;;;;5107923;28;20051;-71
2023/02/03 09:07:55;;;;;;;30.92;5.00;;;;;;;;;;5093989;28;20552;-71
2023/02/03 09:10:21;;;;;;;31.77;5.05;;;;;;;;;;5102177;28;20454;-71
2023/02/03 09:12:48;;;;;;;39.78;6.63;;;;;;;;;;5102192;28;20090;-71
2023/02/03 09:15:14;;;;;;;34.67;6.07;;;;;;;;;;5085532;28;20390;-71
2023/02/03 09:17:40;;;;;;;27.85;4.47;;;;;;;;;;5102421;28;20046;-71
2023/02/03 09:20:07;;;;;;;37.80;5.72;;;;;;;;;;5099349;28;20412;-71
2023/02/03 09:22:34;;;;;;;36.85;7.15;;;;;;;;;;5105254;28;20050;-71
2023/02/03 09:25:00;;;;;;;28.67;5.85;;;;;;;;;;5083310;28;20526;-71
2023/02/03 09:27:26;;;;;;;34.92;5.75;;;;;;;;;;5098439;28;20036;-71
2023/02/03 09:29:52;;;;;;;30.00;6.28;;;;;;;;;;5102083;28;20046;-71
2023/02/03 09:32:18;;;;;;;29.42;4.97;;;;;;;;;;5089744;28;20148;-71
2023/02/03 09:34:45;;;;;;;24.55;4.38;;;;;;;;;;5102456;28;20040;-70
2023/02/03 09:37:11;;;;;;;26.67;5.68;;;;;;;;;;5106424;28;20044;-70
2023/02/03 09:39:37;;;;;;;32.60;5.55;;;;;;;;;;5104869;28;20050;-70
2023/02/03 09:42:09;;;;;;;29.00;6.80;;;;;;;;;;5085291;28;20047;-70
2023/02/03 09:44:41;;;;;;;35.97;7.28;;;;;;;;;;5096063;28;20044;-71
2023/02/03 09:47:11;;;;;;;29.27;5.35;;;;;;;;;;5082981;28;20583;-70
2023/02/03 09:49:43;;;;;;;38.38;7.13;;;;;;;;;;5102906;28;20047;-70
2023/02/03 09:52:14;;;;;;;34.72;5.85;;;;;;;;;;5096988;28;20100;-70
2023/02/03 09:54:44;;;;;;;36.80;6.32;;;;;;;;;;5083236;28;20036;-70
2023/02/03 09:57:15;;;;;;;51.38;8.80;;;;;;;;;;5095815;28;20048;-70
2023/02/03 09:59:41;;;;;;;44.78;7.10;;;;;;;;;;5096932;28;20074;-70
2023/02/03 10:02:24;;;;;;;36.55;6.70;;;;;;;;;;5072041;28;20064;-70
2023/02/03 10:05:04;;;;;;;33.67;5.47;;;;;;;;;;5104188;28;20047;-70
2023/02/03 10:07:37;;;;;;;42.83;7.18;;;;;;;;;;5101506;28;20138;-70
2023/02/03 10:10:15;;;;;;;42.20;7.97;;;;;;;;;;5087973;28;20502;-70
2023/02/03 10:12:51;;;;;;;41.03;8.23;;;;;;;;;;5098063;28;20329;-70
2023/02/03 10:15:25;;;;;;;35.58;6.28;;;;;;;;;;5097831;28;20477;-70
2023/02/03 10:17:54;;;;;;;32.60;6.15;;;;;;;;;;5096140;28;20068;-70
2023/02/03 10:20:22;;;;;;;47.50;6.75;;;;;;;;;;5086288;28;20047;-70
2023/02/03 10:22:51;;;;;;;45.85;7.70;;;;;;;;;;5103972;28;20454;-70
2023/02/03 10:25:23;;;;;;;38.80;6.68;;;;;;;;;;5102581;28;20051;-70
2023/02/03 10:27:50;;;;;;;53.15;8.27;;;;;;;;;;5102261;28;20036;-70
2023/02/03 10:30:19;;;;;;;39.40;6.75;;;;;;;;;;5096154;28;20040;-70
2023/02/03 10:32:45;;;;;;;52.55;8.02;;;;;;;;;;5102167;28;20118;-70
2023/02/03 10:35:12;;;;;;;40.22;7.25;;;;;;;;;;5100673;28;20487;-70
2023/02/03 10:37:43;;;;;;;52.38;7.72;;;;;;;;;;5097387;28;20047;-70
2023/02/03 10:40:12;;;;;;;40.90;8.52;;;;;;;;;;5105325;28;20145;-70
2023/02/03 10:45:24;;;;;;;60.47;8.07;;;;;;;;;;5100148;28;20036;-71
2023/02/03 10:47:52;;;;;;;49.88;9.38;;;;;;;;;;5099420;28;20062;-71
2023/02/03 10:50:19;;;;;;;40.95;7.00;;;;;;;;;;5083718;28;20051;-71
2023/02/03 10:52:46;;;;;;;46.83;8.32;;;;;;;;;;5096760;28;20048;-71
2023/02/03 10:55:24;;;;;;;52.63;8.93;;;;;;;;;;5101532;28;20063;-71
2023/02/03 10:57:50;;;;;;;50.15;8.88;;;;;;;;;;5102851;28;20047;-71
2023/02/03 11:00:17;;;;;;;49.35;7.75;;;;;;;;;;5082769;28;20047;-71
2023/02/03 11:02:44;;;;;;;49.47;9.05;;;;;;;;;;5096758;28;20344;-71
2023/02/03 11:05:11;;;;;;;40.28;7.97;;;;;;;;;;5098190;28;20359;-71
2023/02/03 11:07:37;;;;;;;39.88;8.52;;;;;;;;;;5085250;28;20487;-71
2023/02/03 11:10:03;;;;;;;46.65;8.82;;;;;;;;;;5100207;28;20050;-71
2023/02/03 11:12:29;;;;;;;62.75;11.15;;;;;;;;;;5100641;28;20052;-71
2023/02/03 11:14:56;;;;;;;60.75;10.23;;;;;;;;;;5100364;28;20408;-70
2023/02/03 11:17:25;;;;;;;50.58;9.23;;;;;;;;;;5095754;28;20128;-70
2023/02/03 11:19:52;;;;;;;47.55;8.02;;;;;;;;;;5085975;28;20476;-70
2023/02/03 11:22:32;;;;;;;60.42;9.98;;;;;;;;;;5093500;28;20048;-68
2023/02/03 11:24:59;;;;;;;46.78;7.97;;;;;;;;;;5098108;28;22041;-71
2023/02/03 11:27:28;;;;;;;51.03;9.25;;;;;;;;;;5071699;28;20044;-70
2023/02/03 11:30:06;;;;;;;54.67;8.90;;;;;;;;;;5081765;28;20361;-71
2023/02/03 11:32:35;;;;;;;57.00;8.32;;;;;;;;;;5100810;28;20412;-70
2023/02/03 11:35:03;;;;;;;48.80;8.85;;;;;;;;;;5095926;28;20467;-70
2023/02/03 11:37:38;;;;;;;51.40;9.07;;;;;;;;;;5102642;28;20035;-70
2023/02/03 11:40:10;;;;;;;44.53;9.85;;;;;;;;;;5097679;28;20051;-70
2023/02/03 11:42:38;;;;;;;43.78;8.57;;;;;;;;;;5099495;28;20043;-70
2023/02/03 11:45:14;;;;;;;52.30;9.32;;;;;;;;;;5098122;28;20058;-70
2023/02/03 11:47:48;;;;;;;53.20;9.63;;;;;;;;;;5105127;28;20036;-70
2023/02/03 11:50:20;;;;;;;53.92;9.18;;;;;;;;;;5081792;28;20040;-70
2023/02/03 11:52:50;;;;;;;60.08;9.80;;;;;;;;;;5102857;28;20044;-70
2023/02/03 11:55:23;;;;;;;54.38;9.60;;;;;;;;;;5097829;28;20169;-70
2023/02/03 11:58:00;;;;;;;50.33;10.02;;;;;;;;;;5099196;28;20082;-70
2023/02/03 12:00:30;;;;;;;60.92;10.20;;;;;;;;;;5098206;28;20044;-69
2023/02/03 12:03:02;;;;;;;84.93;12.45;;;;;;;;;;5093631;28;20056;-69
2023/02/03 12:05:35;;;;;;;47.42;9.10;;;;;;;;;;5081604;28;20502;-70
2023/02/03 12:08:09;;;;;;;57.70;10.77;;;;;;;;;;5096608;28;20051;-70
2023/02/03 12:10:35;;;;;;;;;;;;;;;;;;5096889;28;20104;-69
2023/02/03 12:13:01;;;;;;;60.95;10.43;;;;;;;;;;5095516;28;19955;-70
2023/02/03 12:15:33;;;;;;;57.65;9.60;;;;;;;;;;5099732;28;20048;-70
2023/02/03 12:18:09;;;;;;;50.92;8.25;;;;;;;;;;5094241;28;20179;-70
2023/02/03 12:20:40;;;;;;;48.40;8.20;;;;;;;;;;5105231;28;20432;-69
2023/02/03 12:23:13;;;;;;;41.63;8.15;;;;;;;;;;5097642;28;20110;-69
2023/02/03 12:25:48;;;;;;;53.47;9.13;;;;;;;;;;5099785;28;20046;-69
2023/02/03 12:28:15;;;;;;;57.83;7.70;;;;;;;;;;5093185;28;20095;-69
2023/02/03 12:30:44;;;;;;;51.67;9.80;;;;;;;;;;5079264;28;20480;-69
2023/02/03 12:33:13;;;;;;;53.00;10.70;;;;;;;;;;5098231;28;20499;-69
2023/02/03 12:35:42;;;;;;;47.20;9.35;;;;;;;;;;5101853;28;20092;-69
2023/02/03 12:38:20;;;;;;;45.78;8.70;;;;;;;;;;5097566;28;20044;-69
2023/02/03 12:40:54;;;;;;;61.35;12.38;;;;;;;;;;5101194;28;20091;-69
2023/02/03 12:43:25;;;;;;;59.05;11.23;;;;;;;;;;5094017;28;20135;-69
2023/02/03 12:45:54;;;;;;;45.75;10.00;;;;;;;;;;5096791;28;20393;-69
2023/02/03 12:48:22;;;;;;;55.65;9.93;;;;;;;;;;5072835;28;20051;-69
2023/02/03 12:50:51;;;;;;;49.63;9.38;;;;;;;;;;5081969;28;20051;-69
2023/02/03 12:53:23;;;;;;;48.75;9.30;;;;;;;;;;5080413;28;20053;-68
2023/02/03 12:56:01;;;;;;;54.67;9.13;;;;;;;;;;5095560;28;20055;-69
2023/02/03 12:58:36;;;;;;;51.28;10.27;;;;;;;;;;5095764;28;20075;-69
2023/02/03 13:01:08;;;;;;;44.42;8.77;;;;;;;;;;5095934;28;20047;-69
2023/02/03 13:03:43;;;;;;;50.72;8.95;;;;;;;;;;5095175;28;20067;-70
2023/02/03 13:06:28;;;;;;;42.90;8.60;;;;;;;;;;5095095;28;20506;-70
2023/02/03 13:09:00;;;;;;;42.75;8.43;;;;;;;;;;5092310;28;20085;-69
2023/02/03 13:11:27;;;;;;;42.97;7.68;;;;;;;;;;5095834;28;20044;-69
2023/02/03 13:13:55;;;;;;;51.03;9.63;;;;;;;;;;5098627;28;20067;-69
2023/02/03 13:16:24;;;;;;;47.50;7.97;;;;;;;;;;5078739;28;20058;-69
2023/02/03 13:18:53;;;;;;;52.65;9.70;;;;;;;;;;5093978;28;20502;-70
2023/02/03 13:21:20;;;;;;;52.50;8.65;;;;;;;;;;5100847;28;20510;-70
2023/02/03 13:23:47;;;;;;;51.38;8.15;;;;;;;;;;5095150;28;20040;-70
2023/02/03 13:26:14;;;;;;;44.47;8.35;;;;;;;;;;5100941;28;20040;-70
2023/02/03 13:28:46;;;;;;;36.88;8.68;;;;;;;;;;5075022;28;20363;-69
2023/02/03 13:31:19;;;;;;;39.28;7.78;;;;;;;;;;5077602;28;20336;-70
2023/02/03 13:33:53;;;;;;;50.53;8.52;;;;;;;;;;5096855;28;20040;-70
2023/02/03 13:36:37;;;;;;;46.45;8.48;;;;;;;;;;5094943;28;20112;-69
2023/02/03 13:39:14;;;;;;;51.75;8.18;;;;;;;;;;5095573;28;20048;-70
2023/02/03 13:41:44;;;;;;;47.25;10.60;;;;;;;;;;5078990;28;20130;-69
2023/02/03 13:44:12;;;;;;;42.97;8.23;;;;;;;;;;5097837;28;20139;-70
2023/02/03 13:46:39;;;;;;;50.40;9.30;;;;;;;;;;5095291;28;20093;-69
2023/02/03 13:49:06;;;;;;;52.70;8.68;;;;;;;;;;5081329;28;20127;-69
2023/02/03 13:51:34;;;;;;;53.85;8.32;;;;;;;;;;5094850;28;20047;-69
2023/02/03 13:54:02;;;;;;;40.90;8.05;;;;;;;;;;5100929;28;20100;-69
2023/02/03 13:56:29;;;;;;;45.08;9.65;;;;;;;;;;5093875;28;20728;-70
2023/02/03 13:59:00;;;;;;;55.15;8.98;;;;;;;;;;5083332;28;20047;-69
2023/02/03 14:01:29;;;;;;;46.13;10.32;;;;;;;;;;5078724;28;20479;-70
2023/02/03 14:03:56;;;;;;;48.80;8.80;;;;;;;;;;5075495;28;20040;-70
2023/02/03 14:06:35;;;;;;;47.15;9.35;;;;;;;;;;5094843;28;20088;-70
2023/02/03 14:09:02;;;;;;;42.17;7.65;;;;;;;;;;5095909;28;20352;-69
2023/02/03 14:11:33;;;;;;;54.25;9.20;;;;;;;;;;5096031;28;21226;-69
2023/02/03 14:14:20;;;;;;;46.13;8.18;;;;;;;;;;5093709;28;20487;-70
2023/02/03 14:16:47;;;;;;;41.75;7.15;;;;;;;;;;5094932;28;20368;-70
2023/02/03 14:19:19;;;;;;;33.88;7.10;;;;;;;;;;5095374;28;20058;-70
2023/02/03 14:21:48;;;;;;;36.90;6.53;;;;;;;;;;5082507;28;20065;-70
2023/02/03 14:24:15;;;;;;;39.25;8.07;;;;;;;;;;5098261;28;20445;-69
2023/02/03 14:26:41;;;;;;;32.08;6.13;;;;;;;;;;5079743;28;20047;-70
2023/02/03 14:29:08;;;;;;;36.10;7.13;;;;;;;;;;5094319;28;20043;-69
2023/02/03 14:31:59;;;;;;;31.42;6.53;;;;;;;;;;5097276;28;20116;-69
2023/02/03 14:34:34;;;;;;;34.67;6.10;;;;;;;;;;5095557;28;20044;-69
2023/02/03 14:37:18;;;;;;;35.00;7.53;;;;;;;;;;5098530;28;20574;-69
2023/02/03 14:39:55;;;;;;;35.08;6.28;;;;;;;;;;5093513;28;20046;-69
2023/02/03 14:42:39;;;;;;;34.25;6.50;;;;;;;;;;5095923;28;20048;-69
2023/02/03 14:45:05;;;;;;;;;;;;;;;;;;5099963;28;20142;-69